Time;durP1;ratioP1;P1;durP2;ratioP2;P2;SDS_P1;SDS_P2;PMS_P1;PMS_P2;Temp;Humidity;BMP_temperature;BMP_pressure;BME280_temperature;BME280_humidity;BME280_pressure;Samples;Min_cycle;Max_cycle;Signal;HPM_P1;HPM_P2
2022/11/09 00:00:39;;;;;;;69.87;38.17;;;;;;;12.21;84.40;100185.75;5092346;28;20189;-64
2022/11/09 00:03:06;;;;;;;58.57;36.40;;;;;;;12.20;84.45;100181.47;5092822;28;20645;-64
2022/11/09 00:05:33;;;;;;;66.50;37.53;;;;;;;12.22;84.33;100175.94;5092614;28;20259;-64
2022/11/09 00:08:00;;;;;;;69.03;37.47;;;;;;;12.23;83.74;100186.41;5091820;28;20255;-64
2022/11/09 00:10:26;;;;;;;65.70;37.17;;;;;;;12.17;84.00;100181.84;5092302;28;20198;-64
2022/11/09 00:12:53;;;;;;;67.17;38.63;;;;;;;12.04;84.26;100181.69;5086465;28;20194;-64
2022/11/09 00:15:21;;;;;;;61.20;37.27;;;;;;;11.97;85.24;100180.78;5071554;28;20222;-64
2022/11/09 00:17:48;;;;;;;70.67;37.33;;;;;;;11.98;85.31;100184.28;5076636;28;20226;-64
2022/11/09 00:20:14;;;;;;;65.70;38.30;;;;;;;11.97;85.27;100183.44;5076362;28;20231;-65
2022/11/09 00:22:41;;;;;;;69.07;36.27;;;;;;;11.90;85.69;100176.41;5075884;28;20250;-64
2022/11/09 00:25:09;;;;;;;72.83;36.83;;;;;;;11.94;85.59;100178.53;5075628;28;20730;-64
2022/11/09 00:27:35;;;;;;;64.43;36.53;;;;;;;11.90;86.19;100179.06;5076751;28;20347;-64
2022/11/09 00:30:02;;;;;;;65.80;38.90;;;;;;;11.87;86.01;100182.94;5088054;28;20250;-64
2022/11/09 00:32:30;;;;;;;71.53;37.63;;;;;;;11.86;85.99;100183.97;5096358;28;20197;-65
2022/11/09 00:34:57;;;;;;;58.70;37.73;;;;;;;11.89;85.62;100180.94;5095496;28;20220;-64
2022/11/09 00:37:24;;;;;;;64.10;38.33;;;;;;;11.90;85.81;100187.06;5095630;28;20197;-64
2022/11/09 00:39:50;;;;;;;64.93;39.30;;;;;;;11.85;85.85;100182.31;5095980;28;20242;-64
2022/11/09 00:42:17;;;;;;;67.03;38.70;;;;;;;11.78;85.71;100184.06;5096457;28;20188;-64
2022/11/09 00:44:44;;;;;;;68.60;40.00;;;;;;;11.73;86.23;100191.78;5095404;28;20619;-64
2022/11/09 00:47:10;;;;;;;68.47;40.53;;;;;;;11.69;86.84;100190.53;5095799;28;20621;-64
2022/11/09 00:49:38;;;;;;;63.73;38.60;;;;;;;11.66;86.11;100185.56;5095926;28;20250;-64
2022/11/09 00:52:05;;;;;;;75.23;38.57;;;;;;;11.55;86.60;100183.34;5095412;28;20253;-64
2022/11/09 00:54:32;;;;;;;66.27;38.03;;;;;;;11.49;86.94;100177.94;5095493;28;20257;-64
2022/11/09 00:56:58;;;;;;;66.77;39.67;;;;;;;11.42;87.22;100177.00;5096154;28;20255;-64
2022/11/09 00:59:25;;;;;;;74.57;38.83;;;;;;;11.34;88.31;100180.59;5095162;28;20197;-64
2022/11/09 01:01:52;;;;;;;74.93;37.43;;;;;;;11.19;88.65;100177.09;5095199;28;20230;-64
2022/11/09 01:04:19;;;;;;;60.97;38.10;;;;;;;11.12;88.97;100176.22;5095064;28;20732;-64
2022/11/09 01:06:47;;;;;;;71.10;38.57;;;;;;;10.99;88.77;100171.50;5095129;28;20626;-63
2022/11/09 01:09:13;;;;;;;62.50;37.17;;;;;;;11.04;89.74;100174.44;5095312;28;20188;-63
2022/11/09 01:11:40;;;;;;;73.27;36.83;;;;;;;11.07;89.32;100167.13;5094983;28;20196;-65
2022/11/09 01:14:07;;;;;;;63.87;36.27;;;;;;;11.11;88.95;100168.41;5079528;28;20638;-63
2022/11/09 01:16:33;;;;;;;65.70;37.87;;;;;;;11.16;89.19;100174.00;5074545;28;20232;-63
2022/11/09 01:19:00;;;;;;;63.80;37.30;;;;;;;11.21;88.77;100163.63;5075089;28;20245;-64
2022/11/09 01:21:27;;;;;;;65.13;35.20;;;;;;;11.22;88.08;100166.09;5074582;28;20246;-63
2022/11/09 01:23:57;;;;;;;61.63;37.43;;;;;;;11.21;87.82;100169.78;5075523;28;20197;-64
2022/11/09 01:26:24;;;;;;;62.90;36.87;;;;;;;11.23;87.66;100173.06;5075079;28;20196;-64
2022/11/09 01:28:51;;;;;;;62.40;37.67;;;;;;;11.24;87.86;100174.75;5077446;28;20366;-64
2022/11/09 01:31:19;;;;;;;57.73;35.30;;;;;;;11.21;87.48;100169.78;5094937;28;20197;-64
2022/11/09 01:33:46;;;;;;;68.93;37.10;;;;;;;11.22;87.41;100175.94;5094758;28;20242;-64
2022/11/09 01:36:16;;;;;;;56.77;35.50;;;;;;;11.09;86.92;100171.25;5094786;28;20255;-64
2022/11/09 01:38:43;;;;;;;71.87;37.47;;;;;;;10.97;87.54;100162.06;5094999;28;20187;-65
2022/11/09 01:41:14;;;;;;;63.57;36.57;;;;;;;10.91;88.15;100166.28;5094476;28;20196;-64
2022/11/09 01:43:41;;;;;;;63.80;37.07;;;;;;;10.92;88.63;100159.13;5085930;28;20191;-65
2022/11/09 01:46:18;;;;;;;67.53;37.77;;;;;;;10.93;88.62;100172.25;5094328;28;20200;-64
2022/11/09 01:48:49;;;;;;;62.40;36.43;;;;;;;10.96;88.56;100176.38;5094510;28;20184;-64
2022/11/09 01:51:23;;;;;;;66.40;35.73;;;;;;;10.92;88.60;100172.44;5094731;28;20229;-64
2022/11/09 01:53:55;;;;;;;57.27;35.07;;;;;;;10.94;89.43;100173.06;5094428;28;20187;-65
2022/11/09 01:56:24;;;;;;;57.00;35.97;;;;;;;10.88;88.61;100165.81;5095583;28;20212;-64
2022/11/09 01:58:55;;;;;;;62.07;36.13;;;;;;;10.86;89.39;100173.97;5094318;28;20616;-64
2022/11/09 02:01:22;;;;;;;61.57;35.67;;;;;;;10.76;88.36;100175.25;5095241;28;20187;-64
2022/11/09 02:03:53;;;;;;;72.47;37.97;;;;;;;10.70;88.29;100175.94;5094175;28;20253;-64
2022/11/09 02:06:23;;;;;;;68.97;37.33;;;;;;;10.69;88.58;100169.81;5094103;28;20187;-64
2022/11/09 02:08:53;;;;;;;99.37;54.07;;;;;;;10.67;88.30;100171.00;5094199;28;20187;-64
2022/11/09 02:11:23;;;;;;;131.80;71.13;;;;;;;10.67;87.98;100171.81;5093734;28;20221;-65
2022/11/09 02:13:55;;;;;;;114.10;62.80;;;;;;;10.67;88.95;100171.00;5080859;28;20184;-64
2022/11/09 02:16:23;;;;;;;93.53;51.33;;;;;;;10.69;88.82;100174.31;5082506;28;20236;-64
2022/11/09 02:18:53;;;;;;;65.90;37.40;;;;;;;10.63;87.69;100175.84;5094335;28;20179;-64
2022/11/09 02:21:24;;;;;;;66.87;38.13;;;;;;;10.58;88.90;100180.06;5093993;28;20187;-64
2022/11/09 02:23:51;;;;;;;68.47;37.17;;;;;;;10.54;88.89;100181.44;5094179;28;20199;-64
2022/11/09 02:26:26;;;;;;;62.47;35.77;;;;;;;10.48;89.50;100177.66;5094118;28;20225;-64
2022/11/09 02:28:55;;;;;;;69.10;41.40;;;;;;;10.47;88.87;100180.47;5091750;28;20583;-65
2022/11/09 02:31:24;;;;;;;76.93;40.70;;;;;;;10.51;89.11;100184.44;5073440;28;20231;-63
2022/11/09 02:33:56;;;;;;;70.23;42.80;;;;;;;10.50;89.26;100188.09;5073691;28;20564;-64
2022/11/09 02:36:24;;;;;;;99.40;54.77;;;;;;;10.39;88.54;100184.03;5072971;28;20610;-64
2022/11/09 02:38:53;;;;;;;84.97;45.53;;;;;;;10.33;89.18;100186.56;5073026;28;20618;-64
2022/11/09 02:41:21;;;;;;;67.50;39.40;;;;;;;10.23;89.06;100189.47;5073265;28;20249;-64
2022/11/09 02:43:49;;;;;;;59.37;37.23;;;;;;;10.27;90.31;100189.94;5072794;28;20272;-64
2022/11/09 02:46:25;;;;;;;57.40;35.20;;;;;;;10.32;89.80;100191.06;5072814;28;20257;-64
2022/11/09 02:48:52;;;;;;;57.20;34.90;;;;;;;10.29;89.62;100193.22;5073431;28;20266;-64
2022/11/09 02:51:18;;;;;;;57.57;37.13;;;;;;;10.28;89.94;100191.56;5073093;28;20279;-64
2022/11/09 02:53:46;;;;;;;100.47;57.10;;;;;;;10.19;90.02;100192.63;5072696;28;20638;-64
2022/11/09 02:56:13;;;;;;;81.07;49.10;;;;;;;10.11;90.18;100184.72;5072901;28;20227;-64
2022/11/09 02:58:40;;;;;;;83.00;48.67;;;;;;;10.01;91.25;100189.41;5073542;28;20616;-64
2022/11/09 03:01:07;;;;;;;74.10;51.00;;;;;;;9.93;91.94;100186.81;5073017;28;20192;-64
2022/11/09 03:03:33;;;;;;;69.37;43.23;;;;;;;9.82;92.56;100184.53;5072611;28;20554;-64
2022/11/09 03:06:00;;;;;;;53.23;35.73;;;;;;;9.79;93.29;100198.16;5072927;28;20245;-63
2022/11/09 03:08:27;;;;;;;54.73;32.53;;;;;;;9.80;93.22;100195.31;5073659;28;20191;-63
2022/11/09 03:10:55;;;;;;;52.17;33.13;;;;;;;9.84;94.07;100193.13;5072800;28;20254;-64
2022/11/09 03:13:22;;;;;;;52.83;32.30;;;;;;;9.87;92.98;100187.50;5082102;28;20260;-64
2022/11/09 03:15:48;;;;;;;50.50;32.83;;;;;;;9.94;93.50;100193.75;5087755;28;20764;-64
2022/11/09 03:18:15;;;;;;;48.77;33.07;;;;;;;9.93;93.06;100202.72;5073406;28;20228;-63
2022/11/09 03:20:42;;;;;;;51.30;33.73;;;;;;;9.95;93.91;100195.41;5072447;28;20655;-64
2022/11/09 03:23:09;;;;;;;56.37;35.23;;;;;;;10.00;93.38;100198.34;5072568;28;20195;-64
2022/11/09 03:25:37;;;;;;;51.07;34.87;;;;;;;10.05;92.85;100204.84;5072213;28;20663;-64
2022/11/09 03:28:07;;;;;;;52.27;33.53;;;;;;;10.09;92.57;100192.88;5072430;28;20249;-63
2022/11/09 03:30:34;;;;;;;56.63;34.43;;;;;;;10.12;91.68;100197.00;5072060;28;20188;-64
2022/11/09 03:33:02;;;;;;;49.37;33.53;;;;;;;10.15;91.28;100201.97;5072747;28;20192;-63
2022/11/09 03:35:28;;;;;;;53.20;32.80;;;;;;;10.19;91.71;100203.25;5072184;28;20680;-64
2022/11/09 03:37:55;;;;;;;51.67;33.63;;;;;;;10.15;91.13;100199.31;5072667;28;20230;-64
2022/11/09 03:40:22;;;;;;;52.83;33.73;;;;;;;10.14;91.40;100201.13;5087353;28;20199;-64
2022/11/09 03:42:49;;;;;;;53.90;33.57;;;;;;;10.03;91.43;100198.03;5092808;28;20195;-64
2022/11/09 03:45:17;;;;;;;55.80;32.80;;;;;;;9.86;92.19;100204.44;5092415;28;20195;-64
2022/11/09 03:47:45;;;;;;;51.77;33.90;;;;;;;9.88;91.81;100202.41;5092678;28;20263;-64
2022/11/09 03:50:12;;;;;;;56.27;34.63;;;;;;;9.82;92.77;100203.97;5091781;28;20192;-64
2022/11/09 03:52:39;;;;;;;58.07;35.00;;;;;;;9.84;91.46;100203.75;5091759;28;20191;-64
2022/11/09 03:55:06;;;;;;;57.23;35.60;;;;;;;9.78;90.91;100204.47;5092367;28;20191;-65
2022/11/09 03:57:33;;;;;;;63.93;38.00;;;;;;;9.83;92.11;100196.81;5092599;28;20219;-64
2022/11/09 04:00:00;;;;;;;61.63;37.60;;;;;;;9.86;91.20;100207.06;5092293;28;20248;-65
2022/11/09 04:02:28;;;;;;;65.17;38.17;;;;;;;9.79;91.00;100206.09;5092159;28;20194;-65
2022/11/09 04:04:54;;;;;;;62.47;35.27;;;;;;;9.72;91.42;100200.66;5092199;28;20191;-64
2022/11/09 04:07:21;;;;;;;65.63;39.57;;;;;;;9.74;93.10;100197.84;5091858;28;20555;-64
2022/11/09 04:09:48;;;;;;;62.57;41.07;;;;;;;9.78;92.19;100197.34;5092237;28;20272;-64
2022/11/09 04:12:14;;;;;;;70.73;42.03;;;;;;;9.81;91.84;100204.94;5092068;28;20196;-64
2022/11/09 04:14:41;;;;;;;71.60;42.47;;;;;;;9.85;91.03;100192.97;5072260;28;20191;-64
2022/11/09 04:17:08;;;;;;;67.97;41.90;;;;;;;9.90;90.80;100198.59;5071316;28;20695;-64
2022/11/09 04:19:36;;;;;;;66.63;39.30;;;;;;;9.94;91.31;100199.06;5071543;28;20268;-65
2022/11/09 04:22:02;;;;;;;70.70;39.93;;;;;;;9.95;90.48;100200.72;5071859;28;20200;-65
2022/11/09 04:24:29;;;;;;;60.90;37.40;;;;;;;9.97;90.86;100199.53;5071513;28;20560;-64
2022/11/09 04:26:56;;;;;;;63.80;37.40;;;;;;;10.00;90.72;100193.06;5071892;28;20203;-64
2022/11/09 04:29:23;;;;;;;60.87;37.00;;;;;;;10.02;90.56;100191.91;5075784;28;20187;-64
2022/11/09 04:31:50;;;;;;;61.80;36.97;;;;;;;10.06;90.75;100201.16;5071635;28;20196;-64
2022/11/09 04:34:17;;;;;;;57.20;35.83;;;;;;;10.08;89.99;100195.69;5071527;28;20195;-64
2022/11/09 04:36:45;;;;;;;57.57;37.43;;;;;;;10.08;90.41;100198.34;5071429;28;20273;-65
2022/11/09 04:39:12;;;;;;;52.60;34.60;;;;;;;10.04;89.61;100199.66;5071477;28;20545;-65
2022/11/09 04:41:38;;;;;;;69.10;37.67;;;;;;;10.05;90.02;100201.38;5071964;28;20192;-65
2022/11/09 04:44:05;;;;;;;57.23;36.27;;;;;;;10.08;90.35;100206.31;5072214;28;20253;-64
2022/11/09 04:46:32;;;;;;;65.47;37.13;;;;;;;10.09;90.10;100205.31;5071654;28;20258;-64
2022/11/09 04:48:58;;;;;;;69.40;38.33;;;;;;;10.11;90.15;100208.63;5071664;28;20196;-65
2022/11/09 04:51:25;;;;;;;59.80;36.57;;;;;;;10.10;90.54;100209.63;5071614;28;20188;-65
2022/11/09 04:53:55;;;;;;;58.37;35.77;;;;;;;10.07;91.27;100216.13;5071933;28;20191;-64
2022/11/09 04:56:21;;;;;;;69.37;35.93;;;;;;;10.03;90.71;100206.81;5071855;28;20219;-64
2022/11/09 04:58:48;;;;;;;69.57;40.20;;;;;;;10.05;90.66;100209.34;5075203;28;20195;-64
2022/11/09 05:01:15;;;;;;;67.30;37.67;;;;;;;10.06;90.59;100218.94;5092182;28;20222;-65
2022/11/09 05:03:42;;;;;;;61.83;39.57;;;;;;;10.00;89.68;100208.97;5094798;28;20192;-65
2022/11/09 05:08:49;;;;;;;70.20;38.33;;;;;;;10.06;90.34;100216.28;5094224;28;20219;-64
2022/11/09 05:11:18;;;;;;;70.33;36.97;;;;;;;10.03;90.09;100214.78;5094828;28;20195;-65
2022/11/09 05:13:45;;;;;;;67.17;36.43;;;;;;;10.13;90.64;100225.22;5082122;28;20188;-65
2022/11/09 05:16:12;;;;;;;66.93;38.20;;;;;;;10.22;90.16;100218.84;5074390;28;20273;-65
2022/11/09 05:18:38;;;;;;;97.00;52.17;;;;;;;10.30;89.60;100226.75;5075105;28;20213;-65
2022/11/09 05:21:05;;;;;;;137.57;71.70;;;;;;;10.35;89.45;100219.09;5074806;28;20188;-65
2022/11/09 05:26:18;;;;;;;93.83;44.47;;;;;;;10.44;89.24;100231.28;5074594;28;20186;-66
2022/11/09 05:28:44;;;;;;;84.40;41.63;;;;;;;10.47;89.13;100228.28;5087650;28;20183;-66
2022/11/09 05:31:11;;;;;;;85.03;41.90;;;;;;;10.47;88.98;100226.44;5076724;28;20226;-72
2022/11/09 05:33:38;;;;;;;93.67;45.97;;;;;;;10.50;89.16;100233.25;5074434;28;20201;-66
2022/11/09 05:36:05;;;;;;;86.70;44.00;;;;;;;10.49;89.55;100232.41;5074225;28;20216;-66
2022/11/09 05:38:32;;;;;;;89.77;40.77;;;;;;;10.59;89.76;100229.53;5073986;28;20213;-65
2022/11/09 05:40:59;;;;;;;80.87;38.73;;;;;;;10.62;89.66;100237.16;5077814;28;20192;-65
2022/11/09 05:43:27;;;;;;;91.63;39.17;;;;;;;10.65;89.78;100234.94;5083138;28;20196;-67
2022/11/09 05:45:54;;;;;;;85.43;40.33;;;;;;;10.69;90.02;100243.38;5079039;28;20192;-66
2022/11/09 05:48:20;;;;;;;65.97;39.57;;;;;;;10.74;90.26;100246.31;5073861;28;20257;-66
2022/11/09 05:50:47;;;;;;;76.47;39.57;;;;;;;10.78;90.27;100242.31;5073564;28;20195;-65
2022/11/09 05:53:14;;;;;;;77.10;40.57;;;;;;;10.87;89.90;100243.91;5073655;28;20226;-65
2022/11/09 05:55:40;;;;;;;66.27;39.63;;;;;;;10.94;90.22;100242.16;5074641;28;20265;-65
2022/11/09 05:58:07;;;;;;;67.97;38.77;;;;;;;11.03;89.77;100247.22;5073872;28;20224;-65
2022/11/09 06:00:36;;;;;;;68.37;40.27;;;;;;;11.16;89.49;100251.94;5073931;28;20250;-67
2022/11/09 06:03:03;;;;;;;75.13;39.10;;;;;;;11.25;89.39;100261.50;5073541;28;20253;-67
2022/11/09 06:05:31;;;;;;;77.70;40.30;;;;;;;11.30;89.08;100259.09;5074693;28;20279;-66
2022/11/09 06:08:02;;;;;;;77.53;39.30;;;;;;;11.39;89.08;100263.31;5073451;28;20319;-67
2022/11/09 06:10:29;;;;;;;71.87;39.73;;;;;;;11.46;88.58;100266.91;5081452;28;20231;-65
2022/11/09 06:12:56;;;;;;;69.30;37.13;;;;;;;11.52;87.89;100276.00;5093111;28;20650;-65
2022/11/09 06:15:23;;;;;;;73.93;39.07;;;;;;;11.53;87.94;100275.00;5092819;28;20261;-66
2022/11/09 06:17:53;;;;;;;69.27;39.33;;;;;;;11.59;88.22;100277.75;5093012;28;20242;-66
2022/11/09 06:20:20;;;;;;;88.40;41.63;;;;;;;11.67;87.90;100276.88;5093490;28;20249;-64
2022/11/09 06:22:54;;;;;;;93.50;41.43;;;;;;;11.69;87.87;100275.69;5093629;28;20189;-64
2022/11/09 06:25:21;;;;;;;85.73;40.30;;;;;;;11.81;87.71;100278.69;5093586;28;20215;-65
2022/11/09 06:27:48;;;;;;;98.53;42.13;;;;;;;11.85;87.64;100280.81;5085989;28;20208;-65
2022/11/09 06:30:15;;;;;;;78.77;41.10;;;;;;;11.87;87.31;100276.13;5086913;28;20626;-64
2022/11/09 06:32:42;;;;;;;91.50;41.33;;;;;;;11.94;87.17;100273.53;5094271;28;20248;-66
2022/11/09 06:35:10;;;;;;;79.20;39.97;;;;;;;12.05;87.15;100276.53;5093351;28;20197;-67
2022/11/09 06:37:37;;;;;;;79.97;42.90;;;;;;;12.13;87.09;100281.75;5093303;28;20269;-67
2022/11/09 06:40:04;;;;;;;73.57;39.67;;;;;;;12.22;86.76;100274.50;5093979;28;20254;-64
2022/11/09 06:42:31;;;;;;;70.00;40.63;;;;;;;12.29;85.78;100280.75;5093518;28;20199;-64
2022/11/09 06:44:57;;;;;;;50.00;28.33;;;;;;;12.44;88.17;100282.34;5092985;28;20730;-66
2022/11/09 06:47:24;;;;;;;86.70;41.60;;;;;;;12.88;87.43;100275.00;5093441;28;20205;-67
2022/11/09 06:49:51;;;;;;;51.60;31.10;;;;;;;13.21;87.45;100277.94;5093266;28;20188;-70
2022/11/09 06:52:19;;;;;;;73.47;38.90;;;;;;;13.70;82.00;100279.53;5093190;28;20193;-66
2022/11/09 06:54:45;;;;;;;67.73;38.83;;;;;;;14.01;80.46;100285.22;5092690;28;20202;-66
2022/11/09 06:57:12;;;;;;;64.57;39.07;;;;;;;14.26;78.19;100288.25;5092550;28;20675;-67
2022/11/09 06:59:39;;;;;;;62.03;38.50;;;;;;;14.31;75.35;100291.97;5082725;28;20191;-66
2022/11/09 07:02:06;;;;;;;63.20;41.27;;;;;;;14.55;76.47;100283.38;5082037;28;20188;-66
2022/11/09 07:04:33;;;;;;;60.80;40.13;;;;;;;14.81;76.20;100280.78;5081688;28;20548;-66
2022/11/09 07:06:59;;;;;;;70.43;38.23;;;;;;;15.08;75.21;100284.28;5084407;28;20208;-66
2022/11/09 07:09:28;;;;;;;61.70;39.70;;;;;;;15.27;73.12;100289.63;5084525;28;20187;-66
2022/11/09 07:11:54;;;;;;;75.57;41.73;;;;;;;15.54;72.58;100296.66;5078276;28;20204;-66
2022/11/09 07:14:22;;;;;;;72.80;40.80;;;;;;;15.74;72.83;100292.09;5073700;28;20192;-67
2022/11/09 07:16:49;;;;;;;77.27;42.40;;;;;;;15.98;71.62;100286.03;5085323;28;20310;-65
2022/11/09 07:19:16;;;;;;;75.40;41.53;;;;;;;16.24;71.18;100292.31;5090223;28;20183;-66
2022/11/09 07:21:42;;;;;;;68.73;41.67;;;;;;;16.35;69.14;100288.97;5083052;28;20664;-66
2022/11/09 07:24:09;;;;;;;67.73;41.03;;;;;;;16.49;69.17;100302.13;5078128;28;20188;-66
2022/11/09 07:26:37;;;;;;;71.10;39.43;;;;;;;16.53;70.05;100291.81;5072146;28;20196;-65
2022/11/09 07:29:04;;;;;;;63.90;40.30;;;;;;;16.76;70.21;100290.22;5076839;28;20187;-66
2022/11/09 07:31:30;;;;;;;74.50;41.90;;;;;;;17.01;69.00;100295.59;5092388;28;20192;-65
2022/11/09 07:34:01;;;;;;;69.90;42.40;;;;;;;17.24;66.76;100290.47;5092874;28;20248;-66
2022/11/09 07:36:27;;;;;;;70.53;41.23;;;;;;;17.45;66.83;100295.47;5092160;28;20296;-65
2022/11/09 07:38:54;;;;;;;78.07;42.50;;;;;;;17.60;66.02;100306.72;5092420;28;20187;-65
2022/11/09 07:41:21;;;;;;;79.17;43.60;;;;;;;17.69;64.42;100300.84;5092429;28;20283;-65
2022/11/09 07:43:49;;;;;;;87.80;43.70;;;;;;;17.82;63.91;100299.88;5092162;28;20248;-65
2022/11/09 07:46:16;;;;;;;75.87;44.13;;;;;;;17.85;63.48;100300.22;5091940;28;20249;-65
2022/11/09 07:48:43;;;;;;;73.57;42.80;;;;;;;17.82;63.25;100306.06;5091991;28;20252;-65
2022/11/09 07:51:10;;;;;;;77.50;41.77;;;;;;;18.03;64.78;100302.09;5092069;28;20196;-65
2022/11/09 07:53:36;;;;;;;74.50;43.80;;;;;;;18.25;64.07;100300.63;5091968;28;20629;-65
2022/11/09 07:56:04;;;;;;;95.00;47.53;;;;;;;18.53;62.00;100308.97;5092553;28;20187;-66
2022/11/09 07:58:31;;;;;;;76.13;43.07;;;;;;;18.76;61.10;100311.75;5092470;28;20223;-67
2022/11/09 08:00:59;;;;;;;66.43;41.60;;;;;;;18.89;61.85;100300.78;5092203;28;20191;-67
2022/11/09 08:03:26;;;;;;;70.23;42.70;;;;;;;18.85;59.88;100302.28;5088521;28;20667;-67
2022/11/09 08:05:53;;;;;;;76.37;41.00;;;;;;;18.99;61.07;100299.16;5073418;28;20206;-67
2022/11/09 08:08:20;;;;;;;68.50;40.53;;;;;;;19.24;60.14;100299.03;5071923;28;20204;-67
2022/11/09 08:10:50;;;;;;;66.73;41.90;;;;;;;19.50;59.70;100307.50;5083123;28;20249;-69
2022/11/09 08:13:17;;;;;;;71.60;42.77;;;;;;;19.59;56.96;100310.63;5083559;28;20188;-67
2022/11/09 08:15:43;;;;;;;73.33;41.53;;;;;;;19.73;58.12;100312.06;5075390;28;20193;-68
2022/11/09 08:18:13;;;;;;;69.97;42.27;;;;;;;19.77;57.16;100308.63;5091613;28;20767;-67
2022/11/09 08:20:40;;;;;;;79.60;43.53;;;;;;;19.83;56.45;100317.66;5091936;28;20195;-67
2022/11/09 08:23:07;;;;;;;67.40;41.60;;;;;;;19.75;56.47;100310.75;5091769;28;20219;-68
2022/11/09 08:25:34;;;;;;;64.00;41.97;;;;;;;19.59;58.72;100305.25;5091946;28;20193;-67
2022/11/09 08:28:02;;;;;;;80.27;45.17;;;;;;;19.58;57.43;100311.69;5091953;28;20191;-67
2022/11/09 08:30:29;;;;;;;71.87;43.03;;;;;;;19.62;58.47;100304.78;5075708;28;20196;-69
2022/11/09 08:32:56;;;;;;;69.87;43.53;;;;;;;19.81;57.43;100306.31;5071977;28;20197;-67
2022/11/09 08:35:24;;;;;;;65.97;42.83;;;;;;;19.94;57.14;100309.56;5071411;28;20258;-67
2022/11/09 08:37:53;;;;;;;81.03;45.03;;;;;;;20.13;55.91;100307.56;5073257;28;20224;-66
2022/11/09 08:40:22;;;;;;;86.50;46.17;;;;;;;20.32;55.78;100300.94;5075027;28;20245;-67
2022/11/09 08:42:48;;;;;;;83.87;46.20;;;;;;;20.42;55.57;100296.56;5074918;28;20637;-67
2022/11/09 08:45:15;;;;;;;73.57;43.57;;;;;;;20.29;54.44;100301.41;5090576;28;20195;-66
2022/11/09 08:47:42;;;;;;;70.73;43.17;;;;;;;20.42;55.57;100295.78;5095522;28;20196;-67
2022/11/09 08:50:11;;;;;;;68.13;41.47;;;;;;;20.38;54.49;100294.63;5095911;28;20187;-67
2022/11/09 08:52:40;;;;;;;68.17;43.10;;;;;;;20.10;54.94;100283.78;5095302;28;20290;-66
2022/11/09 08:55:07;;;;;;;73.80;42.03;;;;;;;20.11;54.79;100290.81;5095714;28;20612;-67
2022/11/09 08:57:34;;;;;;;72.53;41.00;;;;;;;20.27;55.76;100293.59;5095313;28;20219;-67
2022/11/09 09:00:01;;;;;;;72.73;41.13;;;;;;;20.26;54.82;100291.94;5094404;28;20199;-71
2022/11/09 09:02:27;;;;;;;65.83;39.83;;;;;;;20.25;55.41;100301.09;5077297;28;20664;-67
2022/11/09 09:04:54;;;;;;;70.10;39.70;;;;;;;20.22;54.28;100295.38;5074692;28;20550;-68
2022/11/09 09:07:21;;;;;;;67.03;39.77;;;;;;;20.20;54.47;100292.06;5074921;28;20256;-68
2022/11/09 09:09:49;;;;;;;65.13;39.53;;;;;;;20.10;54.84;100292.66;5078212;28;20248;-68
2022/11/09 09:12:16;;;;;;;50.00;33.07;;;;;;;20.18;56.18;100299.59;5094971;28;20640;-68
2022/11/09 09:14:42;;;;;;;42.60;28.37;;;;;;;20.55;55.50;100296.28;5095396;28;20624;-67
2022/11/09 09:17:09;;;;;;;41.30;28.33;;;;;;;20.96;56.80;100286.25;5076390;28;20223;-67
2022/11/09 09:19:36;;;;;;;60.07;38.93;;;;;;;21.25;52.19;100291.38;5082174;28;20223;-68
2022/11/09 09:22:02;;;;;;;58.10;35.67;;;;;;;21.40;52.07;100285.38;5074579;28;20650;-67
2022/11/09 09:24:29;;;;;;;57.97;34.13;;;;;;;21.72;50.71;100281.03;5074338;28;20725;-68
2022/11/09 09:26:57;;;;;;;58.83;36.27;;;;;;;21.82;50.23;100279.28;5074827;28;20192;-68
2022/11/09 09:29:24;;;;;;;56.87;34.40;;;;;;;22.00;50.33;100278.16;5088389;28;20192;-67
2022/11/09 09:31:51;;;;;;;48.13;31.63;;;;;;;22.18;50.01;100272.44;5074556;28;20192;-67
2022/11/09 09:34:17;;;;;;;49.00;34.70;;;;;;;22.42;48.43;100277.31;5074195;28;20192;-67
2022/11/09 09:36:44;;;;;;;54.13;36.37;;;;;;;22.36;47.22;100267.50;5074944;28;20188;-68
2022/11/09 09:39:11;;;;;;;56.47;36.13;;;;;;;22.40;47.66;100271.34;5074223;28;20301;-68
2022/11/09 09:41:40;;;;;;;54.50;32.13;;;;;;;22.55;48.62;100266.16;5076352;28;20188;-67
2022/11/09 09:44:25;;;;;;;59.10;34.57;;;;;;;22.38;47.22;100243.69;5094468;28;20199;-67
2022/11/09 09:46:58;;;;;;;50.27;32.13;;;;;;;22.62;47.45;100255.91;5094097;28;20643;-69
2022/11/09 09:49:28;;;;;;;45.40;33.27;;;;;;;22.73;47.49;100246.81;5093989;28;20179;-68
2022/11/09 09:51:59;;;;;;;48.77;35.00;;;;;;;22.78;46.12;100249.56;5094097;28;20625;-69
2022/11/09 09:54:31;;;;;;;46.20;30.43;;;;;;;22.80;46.08;100244.72;5094942;28;20183;-69
2022/11/09 09:57:00;;;;;;;49.13;29.87;;;;;;;22.96;45.81;100240.25;5093246;28;20191;-68
2022/11/09 09:59:40;;;;;;;48.67;29.37;;;;;;;23.02;44.90;100240.03;5094102;28;20196;-68
2022/11/09 10:02:16;;;;;;;41.57;28.27;;;;;;;22.89;44.33;100224.19;5094141;28;20183;-67
2022/11/09 10:04:43;;;;;;;39.10;28.20;;;;;;;22.66;44.75;100227.22;5094123;28;20187;-68
2022/11/09 10:07:15;;;;;;;39.23;29.93;;;;;;;22.49;45.88;100231.94;5090837;28;20199;-68
2022/11/09 10:09:57;;;;;;;39.00;28.47;;;;;;;22.44;46.04;100226.44;5094059;28;20222;-67
2022/11/09 10:12:39;;;;;;;44.10;30.00;;;;;;;22.45;46.09;100221.84;5094561;28;20244;-68
2022/11/09 10:15:14;;;;;;;38.57;30.43;;;;;;;22.13;46.43;100224.47;5094159;28;20188;-68
2022/11/09 10:17:51;;;;;;;43.93;30.00;;;;;;;21.98;46.95;100218.91;5093531;28;20291;-67
2022/11/09 10:20:37;;;;;;;42.00;29.53;;;;;;;21.89;47.88;100214.97;5093860;28;20187;-68
2022/11/09 10:23:24;;;;;;;47.70;32.77;;;;;;;21.52;48.22;100205.78;5093226;28;20619;-67
2022/11/09 10:26:11;;;;;;;40.07;26.30;;;;;;;21.29;51.72;100214.13;5072938;28;20675;-70
2022/11/09 10:28:41;;;;;;;48.93;30.90;;;;;;;21.50;49.24;100207.13;5073357;28;20663;-70
2022/11/09 10:31:15;;;;;;;38.60;28.97;;;;;;;21.62;49.42;100208.66;5092829;28;20184;-68
2022/11/09 10:33:42;;;;;;;46.77;32.17;;;;;;;21.62;48.74;100199.72;5091983;28;20577;-69
2022/11/09 10:36:20;;;;;;;50.03;32.63;;;;;;;21.60;49.07;100197.25;5092911;28;20195;-69
2022/11/09 10:38:50;;;;;;;46.03;33.00;;;;;;;21.47;49.38;100191.41;5092606;28;20243;-68
2022/11/09 10:41:26;;;;;;;45.53;32.17;;;;;;;21.36;49.61;100189.63;5093456;28;20241;-68
2022/11/09 10:43:52;;;;;;;44.23;31.33;;;;;;;21.29;50.01;100183.56;5093424;28;20179;-68
2022/11/09 10:46:21;;;;;;;49.87;32.40;;;;;;;21.37;50.17;100175.03;5092910;28;20199;-68
2022/11/09 10:48:48;;;;;;;50.03;31.40;;;;;;;21.44;49.66;100183.78;5093542;28;20195;-68
2022/11/09 10:51:32;;;;;;;39.80;28.47;;;;;;;21.40;49.36;100186.16;5092119;28;20245;-68
2022/11/09 10:54:19;;;;;;;42.40;29.97;;;;;;;21.32;49.47;100186.63;5093110;28;20700;-68
2022/11/09 10:56:49;;;;;;;42.47;28.37;;;;;;;21.31;50.51;100176.03;5093003;28;20183;-68
2022/11/09 10:59:45;;;;;;;50.50;31.37;;;;;;;21.28;50.12;100174.66;5093175;28;20223;-67
2022/11/09 11:02:44;;;;;;;42.10;29.23;;;;;;;21.26;49.51;100171.38;5035559;28;20221;-68
2022/11/09 11:05:31;;;;;;;42.10;32.47;;;;;;;21.28;49.47;100171.97;5083323;28;20199;-68
2022/11/09 11:08:11;;;;;;;40.30;29.13;;;;;;;21.24;49.99;100172.69;5092655;28;20198;-68
2022/11/09 11:10:38;;;;;;;42.30;28.77;;;;;;;21.15;50.04;100158.78;5093313;28;20570;-68
2022/11/09 11:13:24;;;;;;;41.00;30.27;;;;;;;21.21;49.90;100159.66;5092607;28;20196;-68
2022/11/09 11:15:51;;;;;;;42.23;29.30;;;;;;;21.12;50.40;100159.28;5088515;28;20262;-68
2022/11/09 11:18:25;;;;;;;39.57;29.83;;;;;;;20.92;50.99;100150.88;5073017;28;20281;-68
2022/11/09 11:21:14;;;;;;;43.73;30.90;;;;;;;21.04;51.00;100146.19;5072511;28;20241;-68